Time;durP1;ratioP1;P1;durP2;ratioP2;P2;SDS_P1;SDS_P2;PMS_P1;PMS_P2;Temp;Humidity;BMP_temperature;BMP_pressure;BME280_temperature;BME280_humidity;BME280_pressure;Samples;Min_cycle;Max_cycle;Signal;HPM_P1;HPM_P2
2023/07/09 00:01:56;;;;;;;11.23;9.00;;;21.50;66.30;;;;;;5064103;28;20125;-69
2023/07/09 00:04:22;;;;;;;14.33;9.43;;;21.50;66.40;;;;;;5070546;28;20068;-69
2023/07/09 00:06:48;;;;;;;12.03;9.10;;;21.50;66.40;;;;;;5069160;28;20095;-69
2023/07/09 00:09:16;;;;;;;13.50;9.40;;;21.40;66.50;;;;;;5071872;28;20460;-69
2023/07/09 00:11:42;;;;;;;13.03;9.70;;;21.40;66.60;;;;;;5052180;28;20577;-69
2023/07/09 00:14:10;;;;;;;12.03;8.77;;;21.40;66.70;;;;;;5048004;28;20040;-69
2023/07/09 00:16:36;;;;;;;12.57;9.07;;;21.30;66.60;;;;;;5067250;28;20123;-69
2023/07/09 00:19:03;;;;;;;14.60;9.80;;;21.30;66.80;;;;;;5068931;28;20040;-69
2023/07/09 00:21:33;;;;;;;13.57;9.27;;;21.30;66.70;;;;;;5068389;28;20044;-69
2023/07/09 00:24:04;;;;;;;13.67;9.37;;;21.20;66.70;;;;;;5055636;28;20058;-69
2023/07/09 00:26:31;;;;;;;16.17;9.67;;;21.20;66.80;;;;;;5071943;28;20101;-69
2023/07/09 00:28:58;;;;;;;13.07;9.63;;;21.20;66.60;;;;;;5069693;28;20072;-69
2023/07/09 00:31:24;;;;;;;13.30;9.80;;;21.20;66.60;;;;;;5083573;28;20040;-69
2023/07/09 00:33:51;;;;;;;15.17;9.47;;;21.10;66.70;;;;;;5088290;28;20557;-69
2023/07/09 00:36:26;;;;;;;11.87;9.80;;;21.10;66.90;;;;;;5082974;28;20131;-69
2023/07/09 00:38:52;;;;;;;12.63;9.77;;;21.10;66.90;;;;;;5087480;28;20115;-69
2023/07/09 00:41:20;;;;;;;13.23;10.40;;;21.10;67.40;;;;;;5088332;28;20124;-69
2023/07/09 00:43:48;;;;;;;14.20;9.63;;;21.10;67.50;;;;;;5088875;28;20161;-69
2023/07/09 00:46:19;;;;;;;11.87;9.90;;;21.00;67.70;;;;;;5086843;28;20047;-69
2023/07/09 00:48:50;;;;;;;14.53;10.27;;;21.00;67.60;;;;;;5072104;28;20425;-69
2023/07/09 00:51:20;;;;;;;16.03;10.53;;;21.00;67.60;;;;;;5071521;28;20118;-69
2023/07/09 00:53:49;;;;;;;13.00;10.57;;;21.00;67.90;;;;;;5088292;28;20452;-69
2023/07/09 00:56:25;;;;;;;14.30;10.40;;;20.90;68.00;;;;;;5080959;28;20064;-69
2023/07/09 00:58:53;;;;;;;14.50;10.00;;;20.90;68.10;;;;;;5080262;28;20283;-69
2023/07/09 01:01:19;;;;;;;12.47;9.37;;;20.90;68.10;;;;;;5086276;28;20047;-69
2023/07/09 01:03:57;;;;;;;13.67;9.63;;;20.80;68.00;;;;;;5084927;28;20089;-69
2023/07/09 01:06:41;;;;;;;14.17;10.10;;;20.80;68.00;;;;;;5077891;28;20046;-69
2023/07/09 01:09:07;;;;;;;16.52;10.25;;;20.80;68.40;;;;;;5085073;28;20032;-69
2023/07/09 01:11:34;;;;;;;14.40;9.93;;;20.70;68.10;;;;;;5065747;28;20051;-69
2023/07/09 01:14:02;;;;;;;14.20;10.23;;;20.70;68.20;;;;;;5079839;28;20050;-69
2023/07/09 01:16:31;;;;;;;13.17;10.67;;;20.70;68.10;;;;;;5085691;28;20076;-69
2023/07/09 01:18:57;;;;;;;14.67;10.63;;;20.70;68.10;;;;;;5084938;28;20284;-69
2023/07/09 01:21:23;;;;;;;13.00;10.60;;;20.60;68.00;;;;;;5069108;28;20028;-69
2023/07/09 01:23:50;;;;;;;14.60;10.27;;;20.60;68.00;;;;;;5084547;28;20840;-69
2023/07/09 01:26:19;;;;;;;14.23;10.73;;;20.60;68.10;;;;;;5068782;28;20492;-69
2023/07/09 01:28:46;;;;;;;13.60;10.17;;;20.60;68.20;;;;;;5085047;28;20277;-69
2023/07/09 01:31:14;;;;;;;13.50;10.10;;;20.50;68.30;;;;;;5069257;28;20046;-69
2023/07/09 01:33:44;;;;;;;17.33;10.80;;;20.50;68.30;;;;;;5063683;28;20359;-69
2023/07/09 01:36:16;;;;;;;12.80;10.07;;;20.50;68.30;;;;;;5085509;28;20689;-69
2023/07/09 01:38:43;;;;;;;15.03;10.80;;;20.40;68.70;;;;;;5082450;28;20339;-69
2023/07/09 01:41:13;;;;;;;14.33;10.10;;;20.40;68.80;;;;;;5085553;28;20075;-69
2023/07/09 01:43:41;;;;;;;13.77;10.90;;;20.30;68.80;;;;;;5065698;28;20831;-69
2023/07/09 01:46:08;;;;;;;13.47;10.80;;;20.30;69.30;;;;;;5067954;28;20294;-69
2023/07/09 01:48:40;;;;;;;14.23;11.37;;;20.20;69.50;;;;;;5086301;28;20754;-69
2023/07/09 01:51:08;;;;;;;15.23;11.07;;;20.20;69.50;;;;;;5082246;28;20040;-69
2023/07/09 01:53:36;;;;;;;16.23;11.30;;;20.20;69.70;;;;;;5067038;28;20040;-69
2023/07/09 01:56:02;;;;;;;15.57;11.10;;;20.10;70.00;;;;;;5084483;28;20298;-69
2023/07/09 01:58:31;;;;;;;16.37;12.20;;;20.10;70.10;;;;;;5068891;28;20237;-69
2023/07/09 02:00:57;;;;;;;17.73;11.93;;;20.00;70.40;;;;;;5085771;28;20316;-69
2023/07/09 02:03:24;;;;;;;15.93;11.33;;;20.00;70.40;;;;;;5086634;28;20873;-69
2023/07/09 02:05:53;;;;;;;13.73;11.17;;;20.00;70.60;;;;;;5069724;28;20297;-69
2023/07/09 02:08:19;;;;;;;17.27;12.60;;;20.00;70.70;;;;;;5085176;28;20376;-69
2023/07/09 02:10:48;;;;;;;17.90;11.83;;;19.90;70.80;;;;;;5081404;28;20301;-69
2023/07/09 02:13:14;;;;;;;18.60;12.87;;;19.90;71.00;;;;;;5081183;28;20337;-69
2023/07/09 02:15:43;;;;;;;16.20;12.10;;;19.90;71.00;;;;;;5070028;28;20702;-69
2023/07/09 02:18:09;;;;;;;16.07;11.93;;;19.80;71.30;;;;;;5067410;28;20050;-69
2023/07/09 02:20:35;;;;;;;18.83;12.67;;;19.80;71.40;;;;;;5067062;28;20286;-69
2023/07/09 02:23:02;;;;;;;15.13;11.77;;;19.80;71.40;;;;;;5080005;28;20795;-69
2023/07/09 02:25:28;;;;;;;17.30;12.20;;;19.70;71.50;;;;;;5085394;28;20055;-69
2023/07/09 02:27:53;;;;;;;14.90;11.87;;;19.70;71.70;;;;;;5086624;28;20278;-69
2023/07/09 02:30:19;;;;;;;14.73;11.50;;;19.70;71.70;;;;;;5068468;28;20094;-69
2023/07/09 02:32:45;;;;;;;16.70;11.90;;;19.60;71.90;;;;;;5086625;28;20403;-69
2023/07/09 02:35:11;;;;;;;13.63;11.27;;;19.60;72.10;;;;;;5086417;28;20139;-69
2023/07/09 02:37:37;;;;;;;15.07;12.07;;;19.60;72.20;;;;;;5088268;28;20060;-69
2023/07/09 02:40:04;;;;;;;15.07;11.80;;;19.50;72.20;;;;;;5081206;28;20450;-69
2023/07/09 02:42:29;;;;;;;14.33;11.43;;;19.60;72.50;;;;;;5086580;28;20042;-69
2023/07/09 02:44:55;;;;;;;13.47;10.93;;;19.50;72.70;;;;;;5086209;28;20761;-69
2023/07/09 02:47:21;;;;;;;16.03;11.57;;;19.50;73.00;;;;;;5085059;28;20097;-69
2023/07/09 02:49:47;;;;;;;15.60;11.17;;;19.50;72.60;;;;;;5060633;28;20036;-69
2023/07/09 02:52:13;;;;;;;13.97;11.53;;;19.50;72.60;;;;;;5069577;28;20036;-69
2023/07/09 02:54:39;;;;;;;16.37;12.03;;;19.50;72.80;;;;;;5086606;28;20671;-69
2023/07/09 02:57:05;;;;;;;14.03;11.40;;;19.40;72.60;;;;;;5086593;28;20491;-69
2023/07/09 02:59:31;;;;;;;16.37;12.43;;;19.40;72.60;;;;;;5086815;28;20048;-69
2023/07/09 03:01:57;;;;;;;15.37;11.70;;;19.40;72.50;;;;;;5084872;28;20293;-69
2023/07/09 03:04:23;;;;;;;14.80;10.57;;;19.40;73.00;;;;;;5084829;28;20040;-69
2023/07/09 03:06:48;;;;;;;14.97;10.83;;;19.40;72.60;;;;;;5086248;28;20039;-69
2023/07/09 03:09:14;;;;;;;16.33;11.50;;;19.40;72.40;;;;;;5065929;28;20079;-69
2023/07/09 03:11:40;;;;;;;19.67;11.90;;;19.40;72.50;;;;;;5085451;28;20040;-69
2023/07/09 03:14:05;;;;;;;14.33;11.83;;;19.30;72.50;;;;;;5059323;28;20515;-69
2023/07/09 03:16:33;;;;;;;14.07;11.97;;;19.30;72.40;;;;;;5079593;28;20035;-69
2023/07/09 03:18:59;;;;;;;15.37;11.77;;;19.30;72.70;;;;;;5075122;28;20448;-69
2023/07/09 03:21:27;;;;;;;17.07;12.10;;;19.30;72.50;;;;;;5079679;28;20366;-69
2023/07/09 03:23:54;;;;;;;16.07;11.93;;;19.30;72.50;;;;;;5065334;28;20696;-69
2023/07/09 03:26:20;;;;;;;17.30;12.37;;;19.30;72.40;;;;;;5059001;28;20278;-69
2023/07/09 03:28:47;;;;;;;21.90;12.57;;;19.30;72.40;;;;;;5082984;28;20374;-69
2023/07/09 03:31:13;;;;;;;15.67;12.13;;;19.30;72.30;;;;;;5085120;28;20880;-69
2023/07/09 03:33:38;;;;;;;18.37;12.20;;;19.30;72.50;;;;;;5087981;28;20044;-69
2023/07/09 03:36:05;;;;;;;14.60;11.90;;;19.30;72.30;;;;;;5085663;28;20040;-69
2023/07/09 03:38:31;;;;;;;18.13;12.03;;;19.30;72.40;;;;;;5068797;28;20484;-69
2023/07/09 03:40:57;;;;;;;15.80;12.17;;;19.40;72.50;;;;;;5086083;28;20685;-69
2023/07/09 03:43:23;;;;;;;18.53;11.83;;;19.40;72.50;;;;;;5087721;28;20305;-69
2023/07/09 03:45:50;;;;;;;14.17;12.10;;;19.40;72.20;;;;;;5087456;28;20445;-69
2023/07/09 03:48:18;;;;;;;14.63;12.67;;;19.40;72.60;;;;;;5086391;28;20294;-69
2023/07/09 03:50:45;;;;;;;14.70;12.30;;;19.40;72.50;;;;;;5070142;28;20279;-69
2023/07/09 03:53:11;;;;;;;14.40;11.93;;;19.50;72.50;;;;;;5071077;28;20305;-69
2023/07/09 03:55:37;;;;;;;16.33;12.67;;;19.50;72.50;;;;;;5087552;28;20328;-69
2023/07/09 03:58:04;;;;;;;16.87;12.07;;;19.60;72.60;;;;;;5084821;28;20040;-69
2023/07/09 04:00:30;;;;;;;15.50;11.73;;;19.70;72.50;;;;;;5086152;28;20286;-69
2023/07/09 04:02:56;;;;;;;17.10;12.23;;;19.80;72.40;;;;;;5070255;28;20305;-69
2023/07/09 04:05:25;;;;;;;15.20;12.60;;;19.80;72.30;;;;;;5083043;28;20837;-69
2023/07/09 04:07:51;;;;;;;16.87;11.93;;;19.90;72.10;;;;;;5104025;28;20535;-69
2023/07/09 04:10:17;;;;;;;19.37;12.43;;;19.90;72.00;;;;;;5087360;28;20277;-69
2023/07/09 04:12:43;;;;;;;17.20;11.97;;;20.00;72.10;;;;;;5087926;28;20043;-69
2023/07/09 04:15:12;;;;;;;14.77;12.13;;;20.00;71.90;;;;;;5075579;28;20278;-69
2023/07/09 04:17:38;;;;;;;18.47;11.80;;;20.10;71.70;;;;;;5064011;28;20050;-69
2023/07/09 04:20:08;;;;;;;14.50;12.23;;;20.10;71.70;;;;;;5083883;28;20286;-69
2023/07/09 04:22:35;;;;;;;15.00;12.00;;;20.20;71.80;;;;;;5072493;28;20071;-69
2023/07/09 04:25:02;;;;;;;15.60;11.37;;;20.20;71.60;;;;;;5086567;28;20383;-69
2023/07/09 04:27:28;;;;;;;15.80;12.80;;;20.30;71.70;;;;;;5072189;28;20029;-69
2023/07/09 04:29:54;;;;;;;16.20;11.87;;;20.30;71.70;;;;;;5088257;28;20861;-69
2023/07/09 04:32:20;;;;;;;17.57;11.77;;;20.40;71.50;;;;;;5089106;28;20126;-69
2023/07/09 04:34:46;;;;;;;15.43;12.20;;;20.50;71.60;;;;;;5085179;28;20048;-69
2023/07/09 04:37:12;;;;;;;14.37;12.30;;;20.50;71.40;;;;;;5089193;28;20048;-69
2023/07/09 04:39:39;;;;;;;15.03;12.77;;;20.60;71.30;;;;;;5062354;28;20126;-69
2023/07/09 04:42:10;;;;;;;15.57;12.17;;;20.70;71.10;;;;;;5086018;28;20043;-69
2023/07/09 04:44:36;;;;;;;15.70;11.70;;;20.80;71.10;;;;;;5087155;28;20044;-69
2023/07/09 04:47:01;;;;;;;14.83;11.70;;;20.90;70.90;;;;;;5088305;28;20141;-69
2023/07/09 04:49:27;;;;;;;14.03;11.70;;;21.10;70.70;;;;;;5085434;28;20044;-69
2023/07/09 04:51:54;;;;;;;16.47;11.87;;;21.30;70.10;;;;;;5082056;28;20040;-69
2023/07/09 04:54:22;;;;;;;13.40;11.20;;;21.50;69.90;;;;;;5088541;28;20559;-69
2023/07/09 04:56:48;;;;;;;17.07;12.03;;;21.60;69.70;;;;;;5087662;28;20044;-69
2023/07/09 04:59:14;;;;;;;14.87;11.53;;;21.80;69.20;;;;;;5069586;28;20479;-69
2023/07/09 05:01:40;;;;;;;13.30;11.17;;;22.10;68.60;;;;;;5085583;28;20050;-69
2023/07/09 05:04:06;;;;;;;12.93;10.77;;;22.40;67.80;;;;;;5084188;28;20466;-69
2023/07/09 05:06:33;;;;;;;13.77;11.60;;;22.50;67.60;;;;;;5083285;28;20153;-69
2023/07/09 05:08:58;;;;;;;16.87;12.10;;;22.50;67.40;;;;;;5083870;28;20541;-69
2023/07/09 05:11:24;;;;;;;14.93;11.83;;;22.60;67.40;;;;;;5084333;28;20044;-69
2023/07/09 05:13:50;;;;;;;13.73;10.83;;;22.70;67.50;;;;;;5086768;28;20040;-69
2023/07/09 05:16:16;;;;;;;14.03;10.97;;;22.90;67.30;;;;;;5079523;28;20044;-69
2023/07/09 05:18:42;;;;;;;16.50;11.87;;;23.00;67.10;;;;;;5068050;28;20662;-69
2023/07/09 05:21:08;;;;;;;14.77;10.50;;;23.20;66.90;;;;;;5059842;28;20044;-69
2023/07/09 05:23:34;;;;;;;12.77;10.80;;;23.50;66.00;;;;;;5085250;28;20036;-69
2023/07/09 05:26:01;;;;;;;14.93;10.47;;;23.80;65.20;;;;;;5091228;28;20146;-69
2023/07/09 05:28:27;;;;;;;17.50;11.53;;;23.90;64.90;;;;;;5074575;28;20035;-69
2023/07/09 05:30:53;;;;;;;12.37;10.40;;;23.80;64.70;;;;;;5072468;28;20047;-69
2023/07/09 05:33:19;;;;;;;17.03;11.27;;;23.80;64.80;;;;;;5091100;28;20403;-69
2023/07/09 05:35:45;;;;;;;16.03;11.03;;;23.70;64.70;;;;;;5091122;28;20042;-69
2023/07/09 05:38:12;;;;;;;12.53;10.30;;;23.60;64.70;;;;;;5090984;28;20122;-69
2023/07/09 05:40:38;;;;;;;14.17;10.70;;;23.50;64.80;;;;;;5090407;28;20172;-69
2023/07/09 05:43:03;;;;;;;14.53;11.37;;;23.40;65.00;;;;;;5088878;28;20072;-69
2023/07/09 05:45:30;;;;;;;12.97;10.43;;;23.50;65.30;;;;;;5074073;28;20044;-69
2023/07/09 05:47:55;;;;;;;12.87;11.00;;;23.60;65.60;;;;;;5089377;28;20066;-69
2023/07/09 05:50:21;;;;;;;13.67;11.07;;;23.90;64.80;;;;;;5089098;28;20039;-69
2023/07/09 05:52:47;;;;;;;13.10;10.57;;;24.10;64.10;;;;;;5089523;28;20036;-69
2023/07/09 05:55:12;;;;;;;15.83;11.43;;;24.30;63.60;;;;;;5075860;28;20036;-69
2023/07/09 05:57:38;;;;;;;15.27;11.63;;;24.70;62.90;;;;;;5088954;28;20323;-69
2023/07/09 06:00:05;;;;;;;16.53;11.53;;;25.30;61.50;;;;;;5067677;28;20044;-69
2023/07/09 06:02:30;;;;;;;14.83;11.73;;;25.60;60.20;;;;;;5090204;28;20039;-69
2023/07/09 06:04:58;;;;;;;13.90;11.77;;;25.80;59.80;;;;;;5086389;28;20036;-69
2023/07/09 06:07:23;;;;;;;13.60;11.03;;;26.00;59.40;;;;;;5090988;28;20107;-69
2023/07/09 06:09:49;;;;;;;15.87;11.87;;;26.20;59.20;;;;;;5072182;28;20079;-69
2023/07/09 06:12:15;;;;;;;15.90;11.60;;;26.40;58.70;;;;;;5090532;28;20533;-69
2023/07/09 06:14:41;;;;;;;13.97;10.97;;;26.40;58.60;;;;;;5073427;28;20046;-69
2023/07/09 06:17:07;;;;;;;16.20;11.70;;;26.50;58.80;;;;;;5088343;28;20089;-69
2023/07/09 06:19:33;;;;;;;19.60;12.43;;;26.60;58.30;;;;;;5087255;28;20161;-69
2023/07/09 06:21:58;;;;;;;16.30;12.27;;;26.70;58.10;;;;;;5072727;28;20096;-69
2023/07/09 06:24:24;;;;;;;16.93;12.77;;;26.60;58.20;;;;;;5069825;28;20044;-69
2023/07/09 06:26:50;;;;;;;16.63;12.00;;;26.70;58.00;;;;;;5073139;28;20490;-69
2023/07/09 06:29:16;;;;;;;15.07;12.03;;;26.70;58.20;;;;;;5089586;28;20055;-69
2023/07/09 06:31:42;;;;;;;14.23;12.20;;;26.70;58.70;;;;;;5090166;28;20035;-69
2023/07/09 06:34:09;;;;;;;15.53;11.77;;;26.90;58.90;;;;;;5089630;28;20039;-70
2023/07/09 06:36:35;;;;;;;13.10;11.80;;;27.40;57.90;;;;;;5087207;28;20123;-69
2023/07/09 06:39:01;;;;;;;16.77;12.93;;;28.00;56.70;;;;;;5072916;28;20127;-69
2023/07/09 06:41:28;;;;;;;12.77;11.43;;;28.40;55.80;;;;;;5072132;28;20312;-70
2023/07/09 06:43:53;;;;;;;15.37;11.43;;;28.60;55.30;;;;;;5073607;28;20050;-70
2023/07/09 06:46:20;;;;;;;16.40;11.57;;;28.70;56.00;;;;;;5072600;28;20039;-70
2023/07/09 06:48:46;;;;;;;13.10;11.67;;;28.60;56.00;;;;;;5082479;28;20094;-70
2023/07/09 06:51:12;;;;;;;14.13;12.50;;;28.30;56.90;;;;;;5088669;28;20050;-70
2023/07/09 06:53:39;;;;;;;16.37;13.07;;;28.10;57.40;;;;;;5090130;28;20134;-70
2023/07/09 06:56:05;;;;;;;16.37;13.80;;;27.90;58.10;;;;;;5089895;28;20511;-70
2023/07/09 06:58:33;;;;;;;15.20;13.13;;;27.80;58.60;;;;;;5086940;28;20447;-70
2023/07/09 07:01:05;;;;;;;17.10;13.17;;;27.60;59.30;;;;;;5071632;28;20047;-70
2023/07/09 07:03:32;;;;;;;17.67;13.13;;;27.50;60.00;;;;;;5086248;28;20044;-70
2023/07/09 07:05:58;;;;;;;18.63;14.73;;;27.30;60.60;;;;;;5090427;28;20062;-70
2023/07/09 07:08:25;;;;;;;17.33;14.37;;;27.30;61.00;;;;;;5091143;28;20048;-70
2023/07/09 07:11:02;;;;;;;17.07;14.87;;;27.40;61.20;;;;;;5076177;28;20032;-70
2023/07/09 07:13:39;;;;;;;16.60;13.77;;;27.60;60.90;;;;;;5077098;28;20070;-70
2023/07/09 07:16:10;;;;;;;19.60;15.20;;;27.80;60.60;;;;;;5076667;28;20043;-70
2023/07/09 07:18:36;;;;;;;19.87;15.57;;;27.90;60.10;;;;;;5092529;28;20126;-70
2023/07/09 07:21:02;;;;;;;17.93;14.93;;;27.60;60.70;;;;;;5074449;28;20174;-70
2023/07/09 07:23:29;;;;;;;20.00;15.70;;;27.40;61.70;;;;;;5092776;28;20546;-70
2023/07/09 07:25:54;;;;;;;17.70;15.60;;;27.50;62.40;;;;;;5085133;28;20647;-70
2023/07/09 07:28:20;;;;;;;18.83;16.00;;;27.60;62.10;;;;;;5093229;28;20032;-70
2023/07/09 07:30:46;;;;;;;22.20;16.03;;;27.70;62.20;;;;;;5086942;28;20122;-70
2023/07/09 07:33:15;;;;;;;16.93;14.90;;;27.60;62.40;;;;;;5093550;28;20028;-70
2023/07/09 07:35:41;;;;;;;19.37;15.87;;;27.60;62.70;;;;;;5080183;28;20043;-70
2023/07/09 07:38:07;;;;;;;26.20;18.10;;;27.60;63.10;;;;;;5087671;28;20039;-70
2023/07/09 07:40:33;;;;;;;21.27;15.87;;;27.60;62.40;;;;;;5081231;28;20449;-70
2023/07/09 07:42:58;;;;;;;22.10;18.73;;;27.70;62.60;;;;;;5089449;28;20049;-70
2023/07/09 07:45:24;;;;;;;23.97;18.70;;;27.70;61.80;;;;;;5093543;28;20158;-70
2023/07/09 07:47:51;;;;;;;23.87;18.53;;;27.70;62.10;;;;;;5065654;28;20050;-70
2023/07/09 07:50:18;;;;;;;22.57;17.20;;;27.70;62.30;;;;;;5080762;28;20050;-70
2023/07/09 07:52:43;;;;;;;25.70;17.47;;;27.70;63.00;;;;;;5070294;28;20515;-70
2023/07/09 07:55:10;;;;;;;20.50;16.10;;;27.80;63.00;;;;;;5087017;28;20082;-70
2023/07/09 07:57:35;;;;;;;18.97;15.37;;;27.80;63.10;;;;;;5072575;28;20046;-70
2023/07/09 08:00:02;;;;;;;18.00;16.07;;;27.90;63.30;;;;;;5087070;28;20035;-70
2023/07/09 08:02:29;;;;;;;18.03;14.57;;;27.90;62.50;;;;;;5067281;28;20232;-70
2023/07/09 08:04:54;;;;;;;14.67;12.97;;;28.10;61.40;;;;;;5082723;28;20529;-71
2023/07/09 08:07:20;;;;;;;18.20;14.27;;;28.20;59.90;;;;;;5081234;28;20190;-72
2023/07/09 08:09:49;;;;;;;16.70;13.40;;;28.40;59.20;;;;;;5087257;28;20056;-72
2023/07/09 08:12:15;;;;;;;13.60;10.90;;;28.40;57.90;;;;;;5084690;28;20040;-72
2023/07/09 08:14:42;;;;;;;16.63;11.53;;;28.50;56.80;;;;;;5080573;28;20154;-72
2023/07/09 08:17:08;;;;;;;14.23;11.33;;;28.50;55.50;;;;;;5085126;28;20039;-72
2023/07/09 08:19:45;;;;;;;13.87;10.20;;;28.30;55.70;;;;;;5088660;28;20097;-72
2023/07/09 08:22:11;;;;;;;15.30;10.97;;;28.30;55.40;;;;;;5081601;28;20031;-71
2023/07/09 08:24:37;;;;;;;13.17;9.90;;;28.30;54.90;;;;;;5085347;28;20056;-71
2023/07/09 08:27:03;;;;;;;12.00;8.80;;;28.30;54.50;;;;;;5087885;28;20039;-71
2023/07/09 08:29:29;;;;;;;11.93;8.67;;;28.20;53.10;;;;;;5074967;28;20039;-71
2023/07/09 08:31:54;;;;;;;12.17;8.77;;;28.30;53.60;;;;;;5065706;28;20039;-71
2023/07/09 08:34:20;;;;;;;15.83;10.67;;;28.30;53.50;;;;;;5069238;28;20040;-72
2023/07/09 08:36:46;;;;;;;15.53;9.13;;;28.30;53.40;;;;;;5085574;28;20074;-71
2023/07/09 08:39:11;;;;;;;12.67;9.73;;;28.40;53.10;;;;;;5082452;28;20044;-71
2023/07/09 08:41:46;;;;;;;11.47;8.53;;;28.50;52.90;;;;;;5085252;28;20044;-71
2023/07/09 08:44:28;;;;;;;10.73;8.03;;;28.50;52.00;;;;;;5068730;28;20043;-72
2023/07/09 08:47:07;;;;;;;12.73;8.70;;;28.50;51.00;;;;;;5083289;28;20035;-72
2023/07/09 08:49:42;;;;;;;11.40;9.67;;;28.50;52.50;;;;;;5082286;28;20046;-72
2023/07/09 08:52:35;;;;;;;12.63;8.53;;;28.40;51.70;;;;;;5084692;28;20031;-72
2023/07/09 08:55:08;;;;;;;14.10;8.97;;;28.30;51.80;;;;;;5080289;28;20086;-72
2023/07/09 08:57:48;;;;;;;12.57;10.03;;;28.30;51.10;;;;;;5070037;28;20127;-72
2023/07/09 09:00:26;;;;;;;14.13;10.73;;;28.40;51.90;;;;;;5071887;28;20031;-72
2023/07/09 09:02:58;;;;;;;13.93;11.57;;;28.50;52.30;;;;;;5060189;28;20040;-73
2023/07/09 09:05:24;;;;;;;12.87;10.90;;;28.60;53.10;;;;;;5071511;27;20046;-72
2023/07/09 09:08:29;;;;;;;13.07;9.97;;;28.70;53.80;;;;;;5078401;28;20563;-73
2023/07/09 09:11:17;;;;;;;14.73;12.07;;;28.80;53.00;;;;;;5082007;28;20444;-72
2023/07/09 09:13:45;;;;;;;13.63;9.73;;;28.70;52.80;;;;;;5063549;28;20036;-71
2023/07/09 09:16:34;;;;;;;13.90;9.53;;;28.80;51.90;;;;;;5079463;28;20302;-73
2023/07/09 09:19:01;;;;;;;13.43;10.60;;;28.90;51.90;;;;;;5082641;28;20475;-72
2023/07/09 09:21:36;;;;;;;15.00;10.87;;;28.90;52.00;;;;;;5077263;27;20127;-72
2023/07/09 09:24:33;;;;;;;12.73;9.50;;;28.90;52.60;;;;;;5084526;28;20494;-72
2023/07/09 09:26:59;;;;;;;14.20;9.00;;;29.00;52.40;;;;;;5081767;28;20048;-71
2023/07/09 09:29:26;;;;;;;12.40;8.07;;;29.10;52.30;;;;;;5080862;28;20485;-72
2023/07/09 09:31:55;;;;;;;11.80;7.33;;;29.20;52.00;;;;;;5088367;28;20043;-72
2023/07/09 09:34:27;;;;;;;11.30;6.97;;;29.30;50.40;;;;;;5090368;28;20120;-72
2023/07/09 09:36:53;;;;;;;9.33;6.50;;;29.50;50.90;;;;;;5070413;28;20050;-73
2023/07/09 09:39:20;;;;;;;8.23;5.13;;;29.50;48.40;;;;;;5068859;28;20292;-72
2023/07/09 09:41:46;;;;;;;8.77;5.43;;;29.60;45.20;;;;;;5082859;28;20430;-73
2023/07/09 09:44:19;;;;;;;9.10;5.50;;;29.50;42.70;;;;;;5089912;28;20091;-71
2023/07/09 09:46:47;;;;;;;9.13;6.50;;;29.40;44.00;;;;;;5073110;28;20085;-73
2023/07/09 09:49:13;;;;;;;8.87;5.90;;;29.50;44.50;;;;;;5092424;27;20035;-73
2023/07/09 09:51:43;;;;;;;9.77;6.20;;;29.50;45.00;;;;;;5061764;27;20359;-73
2023/07/09 09:54:19;;;;;;;8.33;5.80;;;29.60;45.50;;;;;;5085655;28;20047;-73
2023/07/09 09:56:45;;;;;;;13.50;7.63;;;29.80;45.30;;;;;;5078555;27;20104;-72
2023/07/09 09:59:36;;;;;;;103.63;74.83;;;29.90;44.50;;;;;;5067507;28;20039;-72
2023/07/09 10:02:15;;;;;;;23.47;18.27;;;30.00;45.10;;;;;;5072035;28;20448;-72
2023/07/09 10:04:43;;;;;;;8.60;6.00;;;30.00;44.60;;;;;;5073331;28;20444;-73
2023/07/09 10:07:11;;;;;;;11.30;6.27;;;30.10;44.10;;;;;;5088381;28;20574;-72
2023/07/09 10:09:46;;;;;;;25.83;22.93;;;30.10;44.40;;;;;;5087584;28;20104;-72
2023/07/09 10:12:21;;;;;;;11.67;9.17;;;30.10;46.10;;;;;;5109132;27;20048;-71
2023/07/09 10:14:56;;;;;;;9.20;5.50;;;30.20;44.40;;;;;;5088282;28;20035;-71
2023/07/09 10:17:39;;;;;;;;;;;30.30;44.00;;;;;;5062271;28;20043;-71
2023/07/09 10:20:23;;;;;;;294.80;220.13;;;30.40;45.10;;;;;;5056286;28;19923;-72
2023/07/09 10:23:25;;;;;;;123.82;88.55;;;30.50;45.50;;;;;;5073511;28;20050;-71
2023/07/09 10:26:14;;;;;;;33.20;23.43;;;30.60;43.70;;;;;;5046352;28;20580;-72
2023/07/09 10:29:04;;;;;;;64.40;58.40;;;30.60;43.90;;;;;;5081681;28;20507;-71
2023/07/09 10:31:39;;;;;;;7.17;5.30;;;30.60;44.80;;;;;;5086476;28;20512;-71
2023/07/09 10:34:14;;;;;;;71.13;65.37;;;30.70;43.00;;;;;;5077572;28;20185;-71
2023/07/09 10:37:17;;;;;;;9.43;6.33;;;30.70;43.60;;;;;;5085879;28;20036;-71
2023/07/09 10:39:48;;;;;;;16.67;15.07;;;30.70;43.80;;;;;;5087611;27;21382;-72
2023/07/09 10:42:32;;;;;;;41.70;37.63;;;30.80;44.70;;;;;;5089865;28;20043;-71
2023/07/09 10:45:03;;;;;;;9.80;6.50;;;30.90;44.70;;;;;;5095843;27;20106;-71
2023/07/09 10:47:34;;;;;;;8.20;5.20;;;30.90;45.00;;;;;;5089462;28;20039;-71
2023/07/09 10:50:02;;;;;;;9.00;5.17;;;30.90;44.00;;;;;;5090777;28;20043;-72
2023/07/09 10:52:38;;;;;;;8.63;5.00;;;31.00;43.40;;;;;;5076467;28;20035;-72
2023/07/09 10:55:21;;;;;;;8.67;5.37;;;31.00;42.40;;;;;;5094768;28;20119;-72
2023/07/09 10:57:56;;;;;;;7.33;5.43;;;30.90;43.40;;;;;;5091723;27;20588;-71
2023/07/09 11:00:38;;;;;;;13.10;10.60;;;30.90;43.30;;;;;;5082563;28;20042;-72
2023/07/09 11:03:19;;;;;;;44.17;39.30;;;31.00;43.20;;;;;;5092943;28;20049;-72
2023/07/09 11:05:45;;;;;;;8.83;4.93;;;31.00;42.10;;;;;;5087697;28;20043;-72
2023/07/09 11:08:31;;;;;;;47.80;42.87;;;31.00;41.10;;;;;;5070272;28;20042;-72
2023/07/09 11:11:02;;;;;;;17.63;15.77;;;31.00;41.10;;;;;;5089716;27;20039;-72
2023/07/09 11:13:36;;;;;;;9.47;8.53;;;31.10;40.60;;;;;;5083742;28;20032;-72
2023/07/09 11:16:05;;;;;;;7.47;4.40;;;31.10;39.70;;;;;;5089168;28;20047;-71
2023/07/09 11:18:33;;;;;;;9.53;5.37;;;31.10;39.60;;;;;;5103020;28;20062;-72
2023/07/09 11:21:15;;;;;;;6.37;4.40;;;31.10;40.70;;;;;;5074381;28;20046;-72
2023/07/09 11:23:50;;;;;;;6.17;4.33;;;31.20;41.10;;;;;;5083344;28;20661;-71
2023/07/09 11:26:30;;;;;;;6.65;4.68;;;31.20;41.30;;;;;;5074836;28;20418;-71
2023/07/09 11:29:14;;;;;;;6.67;5.10;;;31.30;41.70;;;;;;5088339;28;20031;-72
2023/07/09 11:31:45;;;;;;;5.82;4.63;;;31.30;41.30;;;;;;5072264;28;20521;-71
2023/07/09 11:34:13;;;;;;;6.20;4.67;;;31.30;42.30;;;;;;5085704;28;20036;-72
2023/07/09 11:36:54;;;;;;;8.10;5.30;;;31.30;41.40;;;;;;5089133;28;20051;-72
2023/07/09 11:39:41;;;;;;;8.20;7.07;;;31.30;41.70;;;;;;5086345;28;20055;-72
2023/07/09 11:42:33;;;;;;;7.30;4.97;;;31.30;41.00;;;;;;5095489;28;20039;-73
2023/07/09 11:45:12;;;;;;;7.50;5.07;;;31.30;41.80;;;;;;5086098;28;20064;-72
2023/07/09 11:47:59;;;;;;;8.13;6.70;;;31.30;41.60;;;;;;5086493;27;20482;-72
2023/07/09 11:50:25;;;;;;;7.07;5.60;;;31.30;41.30;;;;;;5086224;28;20063;-72
2023/07/09 11:53:11;;;;;;;6.30;4.80;;;31.40;41.10;;;;;;5087720;28;20032;-71
2023/07/09 11:55:42;;;;;;;6.30;4.50;;;31.50;41.30;;;;;;5091313;27;20065;-72
2023/07/09 11:58:14;;;;;;;7.03;4.43;;;31.60;41.50;;;;;;5082286;27;20039;-72
2023/07/09 12:00:43;;;;;;;6.03;4.07;;;31.70;41.00;;;;;;5069454;28;20113;-72
2023/07/09 12:03:18;;;;;;;7.10;4.77;;;31.80;40.80;;;;;;5090025;28;20032;-71
2023/07/09 12:05:54;;;;;;;7.37;4.80;;;31.80;40.60;;;;;;5090754;28;20036;-72
2023/07/09 12:08:36;;;;;;;7.60;5.10;;;31.80;41.10;;;;;;5090053;28;20039;-71
2023/07/09 12:11:02;;;;;;;6.20;4.55;;;31.90;42.10;;;;;;5073009;28;20040;-72
2023/07/09 12:13:28;;;;;;;7.18;5.07;;;32.00;41.80;;;;;;5087300;28;20040;-71
2023/07/09 12:15:53;;;;;;;8.38;4.95;;;32.10;42.20;;;;;;5089201;28;20481;-71
2023/07/09 12:18:19;;;;;;;6.18;5.07;;;32.20;41.70;;;;;;5093787;28;20044;-71
2023/07/09 12:20:51;;;;;;;8.43;5.13;;;32.10;41.90;;;;;;5092068;28;20444;-71
2023/07/09 12:23:23;;;;;;;9.38;5.75;;;31.90;41.80;;;;;;5093422;28;20772;-71
2023/07/09 12:25:51;;;;;;;7.15;4.82;;;31.60;42.70;;;;;;5077195;28;20066;-72
2023/07/09 12:28:19;;;;;;;17.48;5.38;;;31.60;43.20;;;;;;5078139;28;20566;-71
2023/07/09 12:30:51;;;;;;;8.38;4.90;;;31.60;42.90;;;;;;5091008;28;20115;-72
2023/07/09 12:33:19;;;;;;;9.63;4.70;;;31.60;42.70;;;;;;5091320;28;20031;-70
2023/07/09 12:35:46;;;;;;;5.50;4.50;;;31.70;43.30;;;;;;5094606;28;20044;-71
2023/07/09 12:38:23;;;;;;;8.50;5.28;;;31.80;43.20;;;;;;5088782;28;20206;-72
2023/07/09 12:40:50;;;;;;;6.03;5.00;;;32.00;43.00;;;;;;5075669;28;20082;-72
2023/07/09 12:43:24;;;;;;;7.38;4.60;;;32.30;41.50;;;;;;5095889;28;20440;-72
2023/07/09 12:45:50;;;;;;;;;;;32.40;40.70;;;;;;5091076;28;20040;-73